Time;durP1;ratioP1;P1;durP2;ratioP2;P2;SDS_P1;SDS_P2;PMS_P1;PMS_P2;Temp;Humidity;BMP_temperature;BMP_pressure;BME280_temperature;BME280_humidity;BME280_pressure;Samples;Min_cycle;Max_cycle;Signal;HPM_P1;HPM_P2
2022/02/12 00:00:41;;;;;;;16.65;4.00;;;0.50;99.90;;;;;;5029564;28;20440;-82
2022/02/12 00:03:07;;;;;;;16.05;4.38;;;0.50;99.90;;;;;;5031863;28;20132;-82
2022/02/12 00:05:32;;;;;;;15.70;4.15;;;0.90;99.90;;;;;;5033723;28;20120;-82
2022/02/12 00:07:59;;;;;;;14.60;4.53;;;0.50;99.90;;;;;;5037384;28;20043;-82
2022/02/12 00:10:27;;;;;;;11.23;3.72;;;0.60;99.90;;;;;;5064293;28;20044;-82
2022/02/12 00:12:52;;;;;;;16.17;4.03;;;0.50;99.90;;;;;;5060773;28;20077;-82
2022/02/12 00:15:18;;;;;;;13.88;3.90;;;0.60;99.90;;;;;;5059007;28;20059;-82
2022/02/12 00:17:45;;;;;;;16.45;3.85;;;0.50;99.90;;;;;;5034660;28;20134;-82
2022/02/12 00:20:12;;;;;;;15.98;4.10;;;0.50;99.90;;;;;;5063537;28;20096;-82
2022/02/12 00:22:37;;;;;;;20.60;4.05;;;0.60;99.90;;;;;;5045694;28;20134;-82
2022/02/12 00:25:04;;;;;;;18.98;3.97;;;0.50;99.90;;;;;;5049303;28;20045;-82
2022/02/12 00:27:29;;;;;;;16.85;5.03;;;0.50;99.90;;;;;;5062999;28;20041;-82
2022/02/12 00:29:55;;;;;;;22.92;4.35;;;0.50;99.90;;;;;;5062789;28;20090;-82
2022/02/12 00:32:21;;;;;;;21.30;4.85;;;0.50;99.90;;;;;;5033257;28;20037;-82
2022/02/12 00:34:46;;;;;;;12.18;4.07;;;0.50;99.90;;;;;;5062028;28;20121;-82
2022/02/12 00:37:12;;;;;;;22.27;4.72;;;0.60;99.90;;;;;;5062169;28;20431;-82
2022/02/12 00:39:39;;;;;;;19.35;4.20;;;0.60;99.90;;;;;;5046691;28;20047;-82
2022/02/12 00:42:05;;;;;;;14.32;3.85;;;0.50;99.90;;;;;;5046169;28;20079;-82
2022/02/12 00:44:30;;;;;;;19.63;3.55;;;0.60;99.90;;;;;;5062256;28;20110;-82
2022/02/12 00:46:56;;;;;;;18.23;4.65;;;0.60;99.90;;;;;;5038141;28;20464;-82
2022/02/12 00:49:23;;;;;;;18.80;4.63;;;0.50;99.90;;;;;;5044836;28;20041;-82
2022/02/12 00:51:48;;;;;;;20.42;3.92;;;0.60;99.90;;;;;;5046072;28;20051;-82
2022/02/12 00:54:14;;;;;;;13.65;3.83;;;0.60;99.90;;;;;;5047341;28;20049;-82
2022/02/12 00:56:40;;;;;;;21.02;3.55;;;0.60;99.90;;;;;;5048954;28;20468;-82
2022/02/12 00:59:06;;;;;;;12.65;3.85;;;0.60;99.90;;;;;;5043804;28;20036;-82
2022/02/12 01:01:32;;;;;;;11.55;3.88;;;0.60;99.90;;;;;;5061551;28;20046;-82
2022/02/12 01:03:58;;;;;;;13.40;3.30;;;0.60;99.90;;;;;;5034836;28;20071;-82
2022/02/12 01:06:23;;;;;;;17.90;3.83;;;0.50;99.90;;;;;;5043944;28;20610;-82
2022/02/12 01:08:49;;;;;;;17.98;3.83;;;0.50;99.90;;;;;;5042626;28;20044;-82
2022/02/12 01:11:14;;;;;;;12.90;3.13;;;0.60;99.90;;;;;;5036635;28;20047;-82
2022/02/12 01:13:41;;;;;;;16.65;4.03;;;0.50;99.90;;;;;;5045517;28;20447;-82
2022/02/12 01:16:07;;;;;;;12.70;3.65;;;0.50;99.90;;;;;;5034487;28;20381;-82
2022/02/12 01:18:33;;;;;;;14.43;3.30;;;0.50;99.90;;;;;;5063822;28;20067;-82
2022/02/12 01:21:00;;;;;;;12.55;3.72;;;0.60;99.90;;;;;;5028010;28;20051;-82
2022/02/12 01:23:25;;;;;;;12.88;3.95;;;0.50;99.90;;;;;;5030510;28;20094;-83
2022/02/12 01:25:51;;;;;;;16.77;3.35;;;0.50;99.90;;;;;;5035692;28;20073;-82
2022/02/12 01:28:20;;;;;;;12.73;2.55;;;0.50;99.90;;;;;;5046690;28;20046;-82
2022/02/12 01:30:46;;;;;;;15.65;3.28;;;0.50;99.90;;;;;;5061807;28;20033;-82
2022/02/12 01:33:13;;;;;;;14.65;2.47;;;0.50;99.90;;;;;;5044242;28;20044;-82
2022/02/12 01:35:38;;;;;;;18.38;4.00;;;0.50;99.90;;;;;;5063693;28;20064;-82
2022/02/12 01:38:04;;;;;;;14.82;2.70;;;0.50;99.90;;;;;;5028376;28;20504;-82
2022/02/12 01:40:30;;;;;;;10.70;2.47;;;0.50;99.90;;;;;;5033136;28;20045;-82
2022/02/12 01:42:56;;;;;;;15.30;2.63;;;0.50;99.90;;;;;;5046863;28;20487;-82
2022/02/12 01:45:22;;;;;;;11.52;2.92;;;0.50;99.90;;;;;;5046068;28;20045;-82
2022/02/12 01:47:48;;;;;;;12.07;3.42;;;0.40;99.90;;;;;;5046789;28;20120;-82
2022/02/12 01:50:15;;;;;;;15.82;3.35;;;0.40;99.90;;;;;;5028640;28;20116;-82
2022/02/12 01:52:43;;;;;;;16.13;3.03;;;0.40;99.90;;;;;;5041096;28;20043;-82
2022/02/12 01:55:09;;;;;;;16.13;3.45;;;0.40;99.90;;;;;;5060049;28;20415;-82
2022/02/12 01:57:35;;;;;;;15.02;3.28;;;0.40;99.90;;;;;;5060492;28;20040;-82
2022/02/12 02:00:00;;;;;;;15.20;2.58;;;0.40;99.90;;;;;;5042294;28;20151;-82
2022/02/12 02:02:26;;;;;;;13.82;3.10;;;0.40;99.90;;;;;;5031285;28;20166;-82
2022/02/12 02:04:52;;;;;;;17.10;3.00;;;0.40;99.90;;;;;;5050409;28;20048;-82
2022/02/12 02:07:18;;;;;;;14.10;3.47;;;0.40;99.90;;;;;;5043809;28;20037;-82
2022/02/12 02:09:45;;;;;;;14.32;4.38;;;0.40;99.90;;;;;;5053271;28;20031;-82
2022/02/12 02:12:11;;;;;;;15.82;3.97;;;0.40;99.90;;;;;;5064153;28;20065;-82
2022/02/12 02:14:39;;;;;;;16.67;4.13;;;0.30;99.90;;;;;;5033339;28;20037;-82
2022/02/12 02:17:07;;;;;;;18.80;3.88;;;0.40;99.90;;;;;;5044685;28;20037;-82
2022/02/12 02:19:32;;;;;;;15.80;3.38;;;0.40;99.90;;;;;;5060661;28;20033;-82
2022/02/12 02:21:59;;;;;;;14.20;3.75;;;0.40;99.90;;;;;;5030499;28;21294;-82
2022/02/12 02:24:26;;;;;;;18.30;3.30;;;0.40;99.90;;;;;;5045410;28;20037;-82
2022/02/12 02:27:21;;;;;;;13.35;3.08;;;0.30;99.90;;;;;;5030993;28;20075;-82
2022/02/12 02:29:47;;;;;;;17.10;3.70;;;0.30;99.90;;;;;;5002699;28;1006794;-82
2022/02/12 02:32:14;;;;;;;20.02;3.97;;;0.30;99.90;;;;;;5044642;28;20041;-82
2022/02/12 02:34:51;;;;;;;20.50;4.15;;;0.30;99.90;;;;;;5067811;28;20037;-82
2022/02/12 02:37:18;;;;;;;15.35;3.50;;;0.30;99.90;;;;;;5030675;28;20081;-82
2022/02/12 02:39:44;;;;;;;21.05;3.38;;;0.30;99.90;;;;;;5053431;28;20105;-82
2022/02/12 02:42:10;;;;;;;21.67;3.33;;;0.30;99.90;;;;;;5063596;28;20044;-82
2022/02/12 02:44:36;;;;;;;13.07;4.10;;;0.30;99.90;;;;;;5043111;28;20037;-83
2022/02/12 02:47:32;;;;;;;17.55;3.72;;;0.40;99.90;;;;;;5037986;28;20039;-83
2022/02/12 02:49:47;;;;;;;15.35;3.13;;;0.30;99.90;;;;;;5047919;28;20045;-83
2022/02/12 02:57:41;;;;;;;11.30;3.45;;;0.30;99.90;;;;;;5046460;28;20131;-82
2022/02/12 03:00:07;;;;;;;14.45;2.90;;;0.40;99.90;;;;;;5029051;28;20127;-82
2022/02/12 03:02:33;;;;;;;17.70;4.28;;;0.40;99.90;;;;;;5062871;28;20086;-83
2022/02/12 03:04:58;;;;;;;14.43;2.80;;;0.40;99.90;;;;;;5048545;28;20049;-82
2022/02/12 03:07:24;;;;;;;18.33;3.38;;;0.40;99.90;;;;;;5047250;28;20037;-83
2022/02/12 03:09:49;;;;;;;22.80;5.68;;;0.40;99.90;;;;;;5033655;28;20025;-83
2022/02/12 03:12:15;;;;;;;18.35;3.35;;;0.40;99.90;;;;;;5042526;28;20035;-83
2022/02/12 03:14:40;;;;;;;17.70;3.13;;;0.40;99.90;;;;;;5048234;28;20770;-83
2022/02/12 03:17:06;;;;;;;20.23;3.20;;;0.30;99.90;;;;;;5029826;28;20045;-83
2022/02/12 03:19:31;;;;;;;12.18;3.65;;;0.30;99.90;;;;;;5059761;28;20073;-83
2022/02/12 03:21:57;;;;;;;12.45;3.70;;;0.30;99.90;;;;;;5050739;28;20044;-83
2022/02/12 03:24:22;;;;;;;14.85;3.05;;;0.30;99.90;;;;;;5036789;28;20111;-82
2022/02/12 03:26:48;;;;;;;12.18;2.72;;;0.30;99.90;;;;;;5043191;28;20120;-83
2022/02/12 03:29:13;;;;;;;18.95;3.58;;;0.30;99.90;;;;;;5059068;28;20041;-82
2022/02/12 03:31:39;;;;;;;14.45;2.92;;;0.30;99.90;;;;;;5031426;28;20036;-83
2022/02/12 03:34:05;;;;;;;17.20;5.05;;;0.30;99.90;;;;;;5061859;28;20059;-83
2022/02/12 03:36:31;;;;;;;14.45;3.53;;;0.20;99.90;;;;;;5068312;28;20492;-83
2022/02/12 03:38:56;;;;;;;15.50;3.72;;;0.30;99.90;;;;;;5049203;28;20048;-83
2022/02/12 03:41:22;;;;;;;23.65;4.13;;;0.30;99.90;;;;;;5031362;28;20044;-83
2022/02/12 03:43:48;;;;;;;12.60;4.10;;;0.30;99.90;;;;;;5058945;28;20033;-82
2022/02/12 03:46:13;;;;;;;16.23;3.95;;;0.30;99.90;;;;;;5026571;28;20489;-82
2022/02/12 03:48:39;;;;;;;14.85;2.95;;;0.30;99.90;;;;;;5025995;28;20037;-82
2022/02/12 03:51:04;;;;;;;10.65;2.60;;;0.30;99.90;;;;;;5042475;28;20047;-83
2022/02/12 03:53:30;;;;;;;15.30;3.15;;;0.20;99.90;;;;;;5046372;28;20115;-83
2022/02/12 03:55:56;;;;;;;10.65;2.70;;;0.30;99.90;;;;;;5036439;28;20122;-83
2022/02/12 03:58:21;;;;;;;15.85;4.60;;;0.30;99.90;;;;;;5039093;28;20577;-82
2022/02/12 04:00:49;;;;;;;18.25;3.22;;;0.30;99.90;;;;;;5044886;28;20045;-83
2022/02/12 04:03:15;;;;;;;14.63;3.55;;;0.30;99.90;;;;;;5046186;28;20587;-83
2022/02/12 04:05:41;;;;;;;20.02;3.30;;;0.30;99.90;;;;;;5045324;28;20131;-82
2022/02/12 04:08:07;;;;;;;19.13;3.55;;;0.20;99.90;;;;;;5033059;28;20063;-82
2022/02/12 04:10:33;;;;;;;16.33;3.45;;;0.70;99.90;;;;;;5027175;28;20032;-82
2022/02/12 04:12:59;;;;;;;17.70;3.88;;;0.20;99.90;;;;;;5045728;28;20040;-82
2022/02/12 04:15:25;;;;;;;18.77;3.10;;;0.20;99.90;;;;;;5044833;28;20102;-82
2022/02/12 04:17:51;;;;;;;17.17;4.18;;;0.30;99.90;;;;;;5048335;28;20044;-82
2022/02/12 04:20:22;;;;;;;19.05;4.30;;;0.30;99.90;;;;;;5027108;28;20036;-82
2022/02/12 04:22:49;;;;;;;19.65;5.05;;;0.20;99.90;;;;;;5044333;28;20032;-82
2022/02/12 04:25:18;;;;;;;15.57;4.00;;;0.30;99.90;;;;;;5030857;28;20048;-82
2022/02/12 04:27:44;;;;;;;13.95;3.75;;;0.30;99.90;;;;;;5059113;28;20044;-82
2022/02/12 04:30:11;;;;;;;18.48;4.03;;;0.30;99.90;;;;;;5046688;28;20040;-82
2022/02/12 04:32:37;;;;;;;19.40;4.53;;;0.30;99.90;;;;;;5044658;28;20044;-82
2022/02/12 04:35:04;;;;;;;11.65;3.70;;;0.30;99.90;;;;;;5058255;28;20140;-82
2022/02/12 04:37:31;;;;;;;12.93;3.85;;;0.20;99.90;;;;;;5040385;28;20036;-82
2022/02/12 04:39:57;;;;;;;14.95;4.30;;;0.30;99.90;;;;;;5052296;28;20040;-82
2022/02/12 04:42:23;;;;;;;21.77;4.80;;;0.20;99.90;;;;;;5031951;28;20396;-83
2022/02/12 04:44:50;;;;;;;14.77;4.82;;;0.30;99.90;;;;;;5057382;28;20037;-82
2022/02/12 04:47:17;;;;;;;17.33;4.82;;;0.30;99.90;;;;;;5064096;28;20040;-82
2022/02/12 04:49:43;;;;;;;24.83;5.95;;;0.20;99.90;;;;;;5044688;28;20090;-82
2022/02/12 04:52:11;;;;;;;21.08;4.25;;;0.30;99.90;;;;;;5060086;28;20044;-82
2022/02/12 04:54:37;;;;;;;16.85;4.55;;;0.20;99.90;;;;;;5047971;28;20052;-82
2022/02/12 04:57:04;;;;;;;19.08;5.80;;;0.20;99.90;;;;;;5059994;28;20041;-82
2022/02/12 04:59:30;;;;;;;18.20;4.15;;;0.30;99.90;;;;;;5031425;28;20059;-82
2022/02/12 05:01:55;;;;;;;19.90;5.22;;;0.20;99.90;;;;;;5034536;28;20578;-83
2022/02/12 05:04:23;;;;;;;11.75;3.97;;;0.20;99.90;;;;;;5045739;28;20049;-82
2022/02/12 05:06:49;;;;;;;17.55;4.88;;;0.20;99.90;;;;;;5043750;28;20046;-82
2022/02/12 05:09:15;;;;;;;16.83;5.40;;;0.20;99.90;;;;;;5059362;28;20037;-83
2022/02/12 05:11:42;;;;;;;22.25;4.93;;;0.30;99.90;;;;;;5032194;28;20043;-83
2022/02/12 05:14:09;;;;;;;16.00;4.82;;;0.20;99.90;;;;;;5046729;28;20484;-82
2022/02/12 05:16:34;;;;;;;22.23;5.15;;;0.40;99.90;;;;;;5047583;28;20044;-82
2022/02/12 05:19:00;;;;;;;17.55;4.68;;;0.20;99.90;;;;;;5030530;28;20036;-82
2022/02/12 05:21:26;;;;;;;10.82;4.45;;;0.20;99.90;;;;;;5048154;28;20075;-83
2022/02/12 05:23:52;;;;;;;15.45;5.07;;;0.30;99.90;;;;;;5028111;28;20060;-82
2022/02/12 05:26:18;;;;;;;24.08;5.90;;;0.20;99.90;;;;;;5065170;28;20044;-82
2022/02/12 05:28:43;;;;;;;13.48;5.00;;;0.20;99.90;;;;;;5046023;28;20029;-82
2022/02/12 05:31:09;;;;;;;19.08;5.00;;;0.20;99.90;;;;;;5026387;28;20132;-82
2022/02/12 05:33:37;;;;;;;16.88;5.32;;;0.30;99.90;;;;;;5028741;28;20036;-82
2022/02/12 05:36:08;;;;;;;16.13;5.47;;;0.30;99.90;;;;;;5058234;28;20102;-82
2022/02/12 05:38:36;;;;;;;18.58;5.32;;;0.30;99.90;;;;;;5062848;28;20095;-82
2022/02/12 05:41:02;;;;;;;16.08;5.00;;;0.30;99.90;;;;;;5048313;28;20048;-82
2022/02/12 05:43:28;;;;;;;16.70;4.82;;;0.30;99.90;;;;;;5039973;28;20455;-82
2022/02/12 05:45:53;;;;;;;16.63;5.30;;;0.40;99.90;;;;;;5034084;28;20132;-82
2022/02/12 05:48:21;;;;;;;19.05;5.20;;;0.40;99.90;;;;;;5040896;28;20029;-82
2022/02/12 05:50:46;;;;;;;16.23;5.57;;;0.40;99.90;;;;;;5047448;28;20149;-82
2022/02/12 05:53:12;;;;;;;13.88;4.85;;;0.40;99.90;;;;;;5048646;28;20449;-82
2022/02/12 05:55:38;;;;;;;21.88;5.93;;;0.40;99.90;;;;;;5033514;28;20124;-82
2022/02/12 05:58:03;;;;;;;16.05;5.70;;;0.40;99.90;;;;;;5049059;28;20047;-82
2022/02/12 06:00:29;;;;;;;10.82;5.05;;;0.40;99.90;;;;;;5040248;28;20040;-82
2022/02/12 06:02:55;;;;;;;20.33;5.55;;;0.50;99.90;;;;;;5045681;28;20195;-82
2022/02/12 06:05:21;;;;;;;16.38;4.80;;;0.40;99.90;;;;;;5037164;28;20052;-82
2022/02/12 06:07:46;;;;;;;13.32;5.60;;;0.40;99.90;;;;;;5030599;28;20127;-82
2022/02/12 06:10:13;;;;;;;13.27;6.03;;;0.40;99.90;;;;;;5032589;28;20120;-82
2022/02/12 06:12:40;;;;;;;14.60;5.75;;;0.40;99.90;;;;;;5040144;28;20126;-82
2022/02/12 06:15:06;;;;;;;17.13;5.50;;;0.40;99.90;;;;;;5037637;28;20563;-82
2022/02/12 06:17:32;;;;;;;21.45;6.30;;;0.40;99.90;;;;;;5032648;28;20040;-82
2022/02/12 06:19:57;;;;;;;25.42;6.80;;;0.40;99.90;;;;;;5028233;28;20143;-82
2022/02/12 06:22:27;;;;;;;15.93;5.75;;;0.40;99.90;;;;;;5030602;28;20036;-82
2022/02/12 06:24:53;;;;;;;15.95;6.70;;;0.40;99.90;;;;;;5042368;28;20086;-82
2022/02/12 06:27:18;;;;;;;21.33;6.93;;;0.40;99.90;;;;;;5057884;28;20503;-82
2022/02/12 06:29:44;;;;;;;14.45;6.40;;;0.40;99.90;;;;;;5064637;28;20037;-82
2022/02/12 06:32:10;;;;;;;20.13;5.55;;;0.40;99.90;;;;;;5048561;28;20373;-82
2022/02/12 06:34:36;;;;;;;15.82;6.78;;;0.40;99.90;;;;;;5032664;28;20033;-82
2022/02/12 06:37:02;;;;;;;19.48;7.05;;;0.40;99.90;;;;;;5043659;28;20033;-83
2022/02/12 06:39:27;;;;;;;21.55;6.40;;;0.40;99.90;;;;;;5044237;28;20041;-83
2022/02/12 06:41:53;;;;;;;16.58;6.57;;;0.30;99.90;;;;;;5028146;28;20039;-83
2022/02/12 06:44:19;;;;;;;17.65;7.88;;;0.40;99.90;;;;;;5046979;28;20052;-83
2022/02/12 06:46:44;;;;;;;13.73;6.63;;;0.40;99.90;;;;;;5047594;28;20037;-83
2022/02/12 06:49:10;;;;;;;20.20;7.97;;;0.40;99.90;;;;;;5067088;28;20072;-82
2022/02/12 06:51:36;;;;;;;18.48;6.82;;;0.40;99.90;;;;;;5042701;28;20644;-83
2022/02/12 06:54:03;;;;;;;19.95;8.48;;;0.40;99.90;;;;;;5047146;28;20037;-83
2022/02/12 06:56:28;;;;;;;16.15;6.85;;;0.40;99.90;;;;;;5062325;28;20803;-81
2022/02/12 06:58:54;;;;;;;21.90;7.38;;;0.40;99.90;;;;;;5033640;28;20075;-81
2022/02/12 07:01:20;;;;;;;23.38;7.13;;;0.40;99.90;;;;;;5031529;28;20123;-81
2022/02/12 07:03:45;;;;;;;20.92;6.70;;;0.40;99.90;;;;;;5029619;28;20032;-81
2022/02/12 07:06:11;;;;;;;18.40;8.00;;;0.40;99.90;;;;;;5047275;28;20041;-81
2022/02/12 07:08:37;;;;;;;21.95;6.97;;;0.40;99.90;;;;;;5030277;28;20036;-81
2022/02/12 07:11:02;;;;;;;23.10;8.57;;;0.30;99.90;;;;;;5046073;28;20090;-81
2022/02/12 07:13:28;;;;;;;12.95;6.13;;;0.40;99.90;;;;;;5037323;28;20029;-81
2022/02/12 07:15:54;;;;;;;19.05;7.13;;;0.50;99.90;;;;;;5033762;28;20056;-82
2022/02/12 07:18:21;;;;;;;15.60;6.90;;;0.40;99.90;;;;;;5032878;28;20043;-81
2022/02/12 07:20:47;;;;;;;20.98;6.75;;;0.40;99.90;;;;;;5060644;28;20067;-81
2022/02/12 07:23:12;;;;;;;19.23;7.32;;;0.40;99.90;;;;;;5061951;28;20126;-82
2022/02/12 07:25:38;;;;;;;22.27;7.13;;;0.40;99.90;;;;;;5032619;28;20044;-81
2022/02/12 07:28:04;;;;;;;22.83;7.25;;;0.50;99.90;;;;;;5048201;28;20029;-81
2022/02/12 07:30:30;;;;;;;19.70;6.85;;;0.50;99.90;;;;;;5050596;28;20507;-82
2022/02/12 07:32:56;;;;;;;12.20;6.75;;;0.50;99.90;;;;;;5036441;28;20071;-81
2022/02/12 07:35:21;;;;;;;17.90;6.55;;;0.50;99.90;;;;;;5064393;28;20052;-81
2022/02/12 07:37:49;;;;;;;15.20;6.50;;;0.50;99.90;;;;;;5065329;28;20043;-81
2022/02/12 07:40:19;;;;;;;15.07;7.25;;;0.50;99.90;;;;;;5058123;28;20665;-82
2022/02/12 07:42:47;;;;;;;14.82;6.07;;;0.50;99.90;;;;;;5033806;28;20033;-82
2022/02/12 08:04:51;;;;;;;16.58;6.30;;;0.80;99.90;;;;;;5061653;28;20032;-82
2022/02/12 08:08:32;;;;;;;19.92;6.22;;;0.80;99.90;;;;;;5010851;28;20100;-84
2022/02/12 08:11:26;;;;;;;21.55;6.18;;;0.90;99.90;;;;;;4991057;28;20057;-84
2022/02/12 08:13:53;;;;;;;14.20;6.90;;;1.20;99.90;;;;;;5025526;28;20045;-84
2022/02/12 08:16:20;;;;;;;19.05;6.93;;;1.00;99.90;;;;;;5028561;28;20051;-84
2022/02/12 08:18:45;;;;;;;16.02;6.82;;;1.00;99.90;;;;;;5070547;28;20094;-84
2022/02/12 08:21:15;;;;;;;15.63;6.47;;;1.10;99.90;;;;;;5038628;28;20048;-84
2022/02/12 08:23:40;;;;;;;12.65;5.85;;;1.10;99.90;;;;;;5038809;28;20035;-84
2022/02/12 08:26:07;;;;;;;18.15;7.30;;;1.20;99.90;;;;;;5037243;28;20044;-85
2022/02/12 08:32:16;;;;;;;15.35;6.10;;;1.20;99.90;;;;;;5054508;28;20047;-83
2022/02/12 08:34:42;;;;;;;16.15;6.90;;;1.30;99.90;;;;;;5034967;28;20033;-84
2022/02/12 08:37:07;;;;;;;17.30;6.88;;;1.40;99.90;;;;;;5038077;28;20076;-83
2022/02/12 08:39:33;;;;;;;14.45;6.10;;;1.40;99.90;;;;;;5032945;28;20036;-85
2022/02/12 08:41:59;;;;;;;14.82;6.47;;;1.40;99.90;;;;;;5037076;28;20040;-84
2022/02/12 08:44:26;;;;;;;15.88;6.78;;;1.50;99.90;;;;;;5035106;28;20072;-86
2022/02/12 08:46:52;;;;;;;30.98;6.57;;;1.50;99.90;;;;;;5047388;28;20032;-84
2022/02/12 08:49:22;;;;;;;19.05;6.40;;;1.60;99.90;;;;;;5050761;28;20730;-84
2022/02/12 08:51:48;;;;;;;18.50;6.15;;;2.00;99.90;;;;;;5029128;28;20044;-83
2022/02/12 08:54:14;;;;;;;14.52;5.80;;;1.70;99.90;;;;;;5050859;28;20063;-83
2022/02/12 08:56:42;;;;;;;17.88;6.28;;;1.80;99.90;;;;;;5029985;28;20512;-83
2022/02/12 08:59:08;;;;;;;17.35;7.28;;;1.80;99.90;;;;;;5054460;28;20528;-83
2022/02/12 09:01:37;;;;;;;15.38;5.88;;;2.10;99.90;;;;;;5033373;28;20040;-84
2022/02/12 09:04:12;;;;;;;25.45;6.57;;;2.00;99.90;;;;;;5046864;28;20037;-84
2022/02/12 09:06:39;;;;;;;18.30;5.78;;;1.90;99.90;;;;;;5065324;28;20048;-84
2022/02/12 09:09:09;;;;;;;20.17;7.63;;;2.80;99.90;;;;;;5058711;28;20044;-83
2022/02/12 09:11:38;;;;;;;15.70;6.13;;;2.20;99.90;;;;;;5033519;28;20091;-84
2022/02/12 09:14:04;;;;;;;14.90;5.68;;;2.20;99.90;;;;;;5059070;28;20044;-83
2022/02/12 09:16:43;;;;;;;15.80;5.63;;;2.20;99.90;;;;;;5060893;28;20530;-84
2022/02/12 09:19:14;;;;;;;17.92;6.43;;;2.30;99.90;;;;;;5040236;28;20029;-84
2022/02/12 09:21:49;;;;;;;16.73;4.80;;;2.40;99.90;;;;;;5042423;28;20059;-83
2022/02/12 09:24:15;;;;;;;14.30;4.60;;;2.50;99.90;;;;;;5044050;28;20040;-83
2022/02/12 09:26:41;;;;;;;13.68;4.50;;;2.40;99.90;;;;;;5055312;28;20048;-83
2022/02/12 09:29:10;;;;;;;18.75;5.28;;;2.50;99.90;;;;;;5024699;28;20102;-84
2022/02/12 09:31:40;;;;;;;17.20;4.63;;;2.60;99.90;;;;;;5024992;28;20040;-84
2022/02/12 09:34:06;;;;;;;13.65;3.70;;;2.70;99.90;;;;;;5030998;28;20061;-84
2022/02/12 09:36:32;;;;;;;19.58;4.97;;;2.80;99.90;;;;;;5031862;28;20087;-84
2022/02/12 09:38:58;;;;;;;13.32;3.55;;;2.90;99.90;;;;;;5015001;28;20056;-82
2022/02/12 09:41:26;;;;;;;18.00;4.40;;;3.00;99.90;;;;;;5046737;28;20059;-84
2022/02/12 09:43:56;;;;;;;10.57;3.65;;;3.10;99.90;;;;;;5034028;28;20048;-85
2022/02/12 09:46:53;;;;;;;14.93;3.53;;;3.80;99.90;;;;;;5077536;28;20048;-84
2022/02/12 09:49:18;;;;;;;18.55;3.75;;;3.30;99.90;;;;;;5029145;28;20061;-84
2022/02/12 09:51:47;;;;;;;14.10;3.97;;;3.40;99.90;;;;;;5048460;28;20060;-85
2022/02/12 09:54:22;;;;;;;10.90;3.22;;;3.40;99.90;;;;;;5065515;28;20110;-84
2022/02/12 09:56:49;;;;;;;11.85;2.72;;;3.80;99.90;;;;;;5029349;28;20065;-85
2022/02/12 09:59:15;;;;;;;13.90;2.53;;;3.70;99.90;;;;;;5027308;28;20056;-84
2022/02/12 10:01:41;;;;;;;10.48;2.72;;;3.70;99.90;;;;;;5019241;28;20045;-84
2022/02/12 10:04:17;;;;;;;14.20;3.70;;;3.90;99.90;;;;;;5063329;28;20041;-84
2022/02/12 10:06:48;;;;;;;16.92;4.03;;;3.90;99.90;;;;;;5063991;28;20104;-84
2022/02/12 10:09:14;;;;;;;8.90;3.22;;;4.00;99.90;;;;;;5060902;28;20040;-84
2022/02/12 10:11:42;;;;;;;14.63;3.72;;;4.10;99.90;;;;;;5066803;28;20037;-84
2022/02/12 10:14:18;;;;;;;14.50;3.30;;;4.20;99.90;;;;;;5065378;28;20040;-84
2022/02/12 10:16:51;;;;;;;12.00;3.40;;;4.30;99.90;;;;;;5064426;28;20052;-84
2022/02/12 10:19:17;;;;;;;15.93;4.43;;;4.40;99.90;;;;;;5027430;28;20179;-84
2022/02/12 10:22:23;;;;;;;11.38;3.33;;;4.40;99.90;;;;;;5045191;28;20086;-84
2022/02/12 10:25:03;;;;;;;12.95;2.92;;;4.60;99.90;;;;;;4957464;28;20526;-84
2022/02/12 10:27:29;;;;;;;8.25;2.42;;;4.50;99.90;;;;;;4976422;28;20038;-84
2022/02/12 10:29:58;;;;;;;14.38;3.58;;;4.60;99.90;;;;;;5005550;28;20048;-84
2022/02/12 10:32:25;;;;;;;12.05;3.05;;;4.70;99.90;;;;;;5039809;28;20127;-84
2022/02/12 10:34:53;;;;;;;12.15;2.83;;;4.70;99.90;;;;;;5071374;28;20033;-84
2022/02/12 10:37:23;;;;;;;13.20;3.40;;;4.70;99.90;;;;;;5043805;28;20076;-84
2022/02/12 10:40:00;;;;;;;14.63;3.40;;;4.80;99.90;;;;;;5058443;28;21232;-84
2022/02/12 10:42:28;;;;;;;12.40;3.28;;;4.80;99.90;;;;;;5030413;28;20063;-85
2022/02/12 10:44:54;;;;;;;15.63;2.72;;;4.80;99.90;;;;;;5076665;28;20084;-85
2022/02/12 10:47:21;;;;;;;10.90;2.80;;;4.90;99.90;;;;;;5061595;28;20121;-84
2022/02/12 10:49:49;;;;;;;14.30;2.70;;;5.10;99.90;;;;;;5091298;28;20048;-84
2022/02/12 10:52:15;;;;;;;10.90;3.60;;;5.20;99.90;;;;;;5037629;28;20097;-84
2022/02/12 10:54:42;;;;;;;12.07;3.30;;;5.50;99.90;;;;;;5039075;28;20040;-84
2022/02/12 10:57:08;;;;;;;15.63;2.70;;;5.40;99.90;;;;;;5043227;28;20076;-84
2022/02/12 10:59:36;;;;;;;13.93;2.95;;;5.50;99.90;;;;;;5048907;28;20080;-84
2022/02/12 11:02:07;;;;;;;10.40;3.20;;;5.60;99.90;;;;;;5066241;28;20046;-84
2022/02/12 11:04:35;;;;;;;13.63;3.58;;;5.60;99.90;;;;;;5036714;28;20106;-85
2022/02/12 11:07:05;;;;;;;13.02;3.30;;;5.70;99.90;;;;;;5066096;28;20037;-84
2022/02/12 11:09:31;;;;;;;10.65;2.78;;;5.80;99.90;;;;;;5041775;28;20032;-84
2022/02/12 11:12:03;;;;;;;12.45;3.63;;;5.90;99.90;;;;;;5060935;28;20059;-84
2022/02/12 11:14:33;;;;;;;22.23;3.63;;;6.00;99.90;;;;;;5038931;28;20157;-85
2022/02/12 11:17:14;;;;;;;15.57;3.35;;;6.10;99.90;;;;;;5087310;28;20048;-85
2022/02/12 11:19:45;;;;;;;8.10;2.50;;;6.20;99.90;;;;;;5080181;28;20121;-85
2022/02/12 11:22:12;;;;;;;7.13;2.63;;;6.20;99.90;;;;;;5039262;28;20044;-85
2022/02/12 11:24:44;;;;;;;11.95;3.58;;;6.30;99.90;;;;;;5041398;28;20105;-85
2022/02/12 11:27:41;;;;;;;14.23;2.83;;;6.40;99.90;;;;;;5037211;28;20094;-85
2022/02/12 11:30:18;;;;;;;10.50;2.92;;;6.40;99.90;;;;;;5044093;28;20045;-85
2022/02/12 11:32:45;;;;;;;7.30;2.28;;;6.50;99.90;;;;;;5049258;28;20047;-84
2022/02/12 11:35:10;;;;;;;11.95;3.13;;;6.50;99.90;;;;;;5032753;28;20048;-84
2022/02/12 11:37:41;;;;;;;10.98;2.70;;;6.60;99.90;;;;;;5035867;28;20396;-84
2022/02/12 11:40:41;;;;;;;11.80;3.42;;;6.70;99.90;;;;;;5049821;28;20037;-84
2022/02/12 11:43:11;;;;;;;8.85;2.47;;;6.70;99.90;;;;;;5054974;28;20036;-83
2022/02/12 11:45:43;;;;;;;11.15;3.13;;;6.60;99.90;;;;;;5054560;28;20040;-84
2022/02/12 11:48:22;;;;;;;11.70;3.28;;;6.70;99.00;;;;;;5054069;28;20043;-86
2022/02/12 11:51:09;;;;;;;8.75;2.65;;;6.70;99.70;;;;;;5038687;28;20135;-85
2022/02/12 11:53:48;;;;;;;13.63;3.42;;;6.80;99.60;;;;;;5049575;28;20037;-83
2022/02/12 11:56:26;;;;;;;14.60;3.20;;;6.80;99.80;;;;;;5031062;28;20045;-85
2022/02/12 11:58:53;;;;;;;10.25;2.95;;;6.80;99.90;;;;;;5032351;28;20051;-84
2022/02/12 12:01:21;;;;;;;15.88;2.65;;;7.80;99.90;;;;;;5053800;28;20044;-84
2022/02/12 12:04:14;;;;;;;10.27;2.75;;;6.90;99.90;;;;;;5049998;28;20040;-84
2022/02/12 12:11:02;;;;;;;9.75;2.55;;;6.90;98.10;;;;;;5054956;28;20086;-88
2022/02/12 12:14:16;;;;;;;9.85;2.80;;;7.10;97.70;;;;;;5015584;28;20044;-84
2022/02/12 12:17:32;;;;;;;9.93;2.17;;;7.10;97.80;;;;;;5064199;28;20045;-85
2022/02/12 12:20:18;;;;;;;11.52;2.72;;;7.10;96.70;;;;;;5036254;28;20041;-85
2022/02/12 12:22:45;;;;;;;6.53;2.10;;;7.10;96.80;;;;;;5029958;28;20041;-85
2022/02/12 12:25:12;;;;;;;13.85;2.53;;;7.10;95.10;;;;;;5041469;28;20059;-86
2022/02/12 12:27:38;;;;;;;15.48;2.83;;;7.10;94.20;;;;;;5019396;28;20040;-84
2022/02/12 12:32:58;;;;;;;9.77;2.08;;;7.00;94.90;;;;;;5086670;28;20072;-83
2022/02/12 12:35:24;;;;;;;12.65;2.58;;;7.20;96.40;;;;;;5044800;28;20449;-84
2022/02/12 12:37:55;;;;;;;10.38;2.28;;;7.10;94.90;;;;;;5033096;28;20116;-84
2022/02/12 12:40:32;;;;;;;14.85;2.53;;;7.10;94.90;;;;;;5060778;28;20135;-85
2022/02/12 12:43:06;;;;;;;11.18;3.22;;;7.10;94.10;;;;;;5068171;28;20403;-84
2022/02/12 12:45:38;;;;;;;8.48;2.60;;;7.10;95.10;;;;;;5068491;28;20105;-84
2022/02/12 12:48:05;;;;;;;7.32;2.13;;;7.20;96.20;;;;;;5032377;28;20068;-85
2022/02/12 12:50:36;;;;;;;9.88;2.88;;;7.10;94.70;;;;;;5031128;28;20039;-85
2022/02/12 12:53:10;;;;;;;8.48;2.47;;;7.00;95.00;;;;;;5039294;28;20050;-84
2022/02/12 12:55:37;;;;;;;12.48;3.88;;;6.90;94.90;;;;;;5043983;28;20499;-85
2022/02/12 12:58:11;;;;;;;7.43;2.25;;;7.00;95.90;;;;;;5036511;28;20036;-84
2022/02/12 13:00:36;;;;;;;7.72;2.55;;;7.10;94.80;;;;;;5034065;28;20048;-87
2022/02/12 13:03:02;;;;;;;12.77;2.38;;;7.10;95.50;;;;;;5052991;28;20044;-84
2022/02/12 13:05:30;;;;;;;8.48;3.03;;;7.10;94.70;;;;;;5041545;28;20556;-84
2022/02/12 13:08:00;;;;;;;12.40;2.95;;;7.10;95.00;;;;;;5056448;28;20052;-85
2022/02/12 13:10:27;;;;;;;9.90;3.25;;;7.10;96.30;;;;;;5061499;28;20061;-85
2022/02/12 13:12:54;;;;;;;9.43;3.22;;;7.90;96.30;;;;;;5059816;28;20045;-84
2022/02/12 13:15:28;;;;;;;7.38;2.05;;;7.10;95.30;;;;;;5066245;28;20044;-84
2022/02/12 13:17:56;;;;;;;10.07;2.78;;;7.10;93.70;;;;;;5038430;28;20059;-85
2022/02/12 13:20:24;;;;;;;10.45;2.80;;;7.10;93.80;;;;;;5064569;28;20028;-86
2022/02/12 13:22:56;;;;;;;11.98;3.33;;;6.90;93.80;;;;;;5035723;28;20040;-85
2022/02/12 13:25:24;;;;;;;8.82;3.88;;;6.90;94.80;;;;;;5067299;28;20060;-86
2022/02/12 13:27:50;;;;;;;11.07;2.20;;;6.90;95.60;;;;;;5034013;28;20175;-85
2022/02/12 13:30:22;;;;;;;10.40;3.15;;;6.90;94.30;;;;;;5053131;28;20075;-86